Flight Track Log - Related Links

Times and Time Zones

All times are in EDT time to prevent confusion due to time zone crossing. See the N860BA flight status page for this flight to view local times or setup timezone preferences in your user account.

Time Position Orientation Groundspeed Altitude Reporting Facility
EDT Latitude Longitude Course Direction KTS MPH feet Rate Location/Type
Sun 04:59:05 PM 34.1667 -118.4833 259° West 181 208 2,000  Level Southern California TRACON
Sun 05:01:18 PM 34.1444 -118.6178 259° West 229 264 8,500 2,954 Climbing Los Angeles Center
Sun 05:02:20 PM 34.2103 -118.6111 North 235 270 11,600 2,371 Climbing Los Angeles Center
Sun 05:03:22 PM 34.2692 -118.6383 339° North 229 264 13,400 1,403 Climbing Los Angeles Center
Sun 05:04:24 PM 34.3439 -118.6711 340° North 281 323 14,500 1,161 Climbing Los Angeles Center
Sun 05:05:26 PM 34.4289 -118.7042 342° North 322 371 15,800 1,258 Climbing Los Angeles Center
Sun 05:06:28 PM 34.5211 -118.7428 341° North 350 403 17,100 1,742 Climbing Los Angeles Center
Sun 05:07:30 PM 34.6339 -118.7892 341° North 357 411 19,400 2,032 Climbing Los Angeles Center
Sun 05:08:32 PM 34.7267 -118.8300 340° North 357 411 21,300 1,790 Climbing Los Angeles Center
Sun 05:09:34 PM 34.8181 -118.8722 339° North 352 405 23,100 1,403 Climbing Los Angeles Center
Sun 05:10:36 PM 34.8997 -118.9422 325° Northwest 343 395 24,200 864 Climbing Los Angeles Center
Sun 05:11:39 PM 34.9842 -119.0125 326° Northwest 368 423 24,900 672 Climbing Los Angeles Center
Sun 05:12:41 PM 35.0733 -119.0850 326° Northwest 387 445 25,600 532 Climbing Los Angeles Center
Sun 05:13:43 PM 35.1594 -119.1681 322° Northwest 402 463 26,000 194 Climbing Los Angeles Center
Sun 05:14:45 PM 35.2231 -119.3133 298° West 405 466 26,000  Level Los Angeles Center
Sun 05:15:47 PM 35.2769 -119.4356 298° West 408 470 26,000  Level Los Angeles Center
Sun 05:16:49 PM 35.3342 -119.5592 300° West 417 480 26,000  Level Los Angeles Center
Sun 05:17:51 PM 35.3897 -119.6842 299° West 419 482 26,000  Level Los Angeles Center
Sun 05:18:53 PM 35.4444 -119.8092 298° West 419 482 26,000  Level Los Angeles Center
Sun 05:19:55 PM 35.5117 -119.9569 299° West 416 479 26,000  Level Los Angeles Center
Sun 05:20:57 PM 35.5669 -120.0822 299° West 421 484 26,000  Level Los Angeles Center
Sun 05:22:00 PM 35.6261 -120.2164 299° West 420 483 26,000  Level Los Angeles Center
Sun 05:22:36 PM 35.6547 -120.2814 298° West 421 484 26,000  Level Oakland Center
Sun 05:23:38 PM 35.7100 -120.4058 299° West 421 484 26,000  Level Oakland Center
Sun 05:24:39 PM 35.7772 -120.5558 299° West 420 483 26,000 -194 Level Oakland Center
Sun 05:25:42 PM 35.8542 -120.6619 312° West 420 483 25,600 -532 Descending Oakland Center
Sun 05:26:43 PM 35.9397 -120.7664 315° West 432 497 24,900 -787 Descending Oakland Center
Sun 05:27:44 PM 36.0247 -120.8739 314° West 437 503 24,000 -829 Descending Oakland Center
Sun 05:28:46 PM 36.1122 -120.9819 315° West 443 510 23,200 -780 Descending Oakland Center
Sun 05:29:47 PM 36.1992 -121.0922 314° West 447 514 22,400 -780 Descending Oakland Center
Sun 05:30:49 PM 36.2858 -121.2025 314° West 448 516 21,600 -878 Descending Oakland Center
Sun 05:31:50 PM 36.3881 -121.3322 314° West 441 507 20,600 -878 Descending Oakland Center
Sun 05:32:52 PM 36.4922 -121.3969 333° Northwest 433 498 19,800 -1,210 Descending Oakland Center
Sun 05:33:54 PM 36.6033 -121.4297 347° North 411 473 18,100 -2,439 Descending Oakland Center
Sun 05:34:55 PM 36.7058 -121.4625 346° North 385 443 14,800 -2,683 Descending Oakland Center
Sun 05:35:57 PM 36.8028 -121.4922 346° North 359 413 12,600 -1,951 Descending Oakland Center
Sun 05:36:58 PM 36.8881 -121.5408 335° Northwest 306 352 10,800 -1,659 Descending Oakland Center
Sun 05:38:00 PM 36.9553 -121.5858 332° Northwest 282 325 9,200 -1,561 Descending Oakland Center
Sun 05:39:01 PM 37.0186 -121.6264 333° Northwest 263 303 7,600 -1,268 Descending Oakland Center
Sun 05:40:03 PM 37.0786 -121.6683 331° Northwest 251 289 6,600 -1,016 Descending Oakland Center
Sun 05:41:05 PM 37.1408 -121.7103 332° Northwest 253 291 5,500 -1,317 Descending Oakland Center
Sun 05:42:06 PM 37.1986 -121.7525 330° Northwest 248 285 3,900 -1,317 Descending Oakland Center
Sun 05:43:08 PM 37.2411 -121.7978 320° Northwest 220 253 2,800 -732 Descending Oakland Center
Sun 05:44:09 PM 37.2786 -121.8408 318° Northwest 198 228 2,400 -780 Descending Oakland Center
Sun 05:45:11 PM 37.3192 -121.8853 319° Northwest 176 203 1,200 -1,024 Descending Oakland Center
Sun 05:46:12 PM 37.3514 -121.9192 320° Northwest 161 185 300 -885 Descending Oakland Center
Sun 05:48:00 PM 37.3500 -121.9167 North  Level FlightAware Approximate

Login

Don't have an account? Register now (free) for customized features, flight alerts, and more!